Terminal Aerodrome Forecast
Issued by NWS

Home | Current Version | Previous Version | Text Only | Print | Product List | Glossary On
Versions: 1 2 3 4 5 6 7 8 9 10 11 12 13 14 15 16 17 18 19 20 21 22 23
735
FTPA31 PHFO 232334
TAFHMK
TAF
PHMK 232334Z 2400/2424 05018G28KT P6SM FEW020 FEW060
     FM240400 05010G18KT P6SM FEW025 SCT060
     FM242000 04018G25KT P6SM SCT025 SCT060=

USA.gov is the U.S. government's official web portal to all federal, state and local government web resources and services.